sensor_id;sensor_type;location;lat;lon;timestamp;temperature;humidity
66422;DHT22;53228;51.380;0.098;2024-01-30T00:02:06;11.00;99.90
66422;DHT22;53228;51.380;0.098;2024-01-30T00:04:34;11.00;99.90
66422;DHT22;53228;51.380;0.098;2024-01-30T00:07:01;10.80;99.90
66422;DHT22;53228;51.380;0.098;2024-01-30T00:09:29;11.00;99.90
66422;DHT22;53228;51.380;0.098;2024-01-30T00:11:57;11.00;99.90
66422;DHT22;53228;51.380;0.098;2024-01-30T00:14:25;11.20;99.90
66422;DHT22;53228;51.380;0.098;2024-01-30T00:16:54;11.00;99.90
66422;DHT22;53228;51.380;0.098;2024-01-30T00:19:24;11.00;99.90
66422;DHT22;53228;51.380;0.098;2024-01-30T00:21:52;11.00;99.90
66422;DHT22;53228;51.380;0.098;2024-01-30T00:24:20;11.00;99.90
66422;DHT22;53228;51.380;0.098;2024-01-30T00:26:47;11.00;99.90
66422;DHT22;53228;51.380;0.098;2024-01-30T00:29:15;11.00;99.90
66422;DHT22;53228;51.380;0.098;2024-01-30T00:31:46;11.00;99.90
66422;DHT22;53228;51.380;0.098;2024-01-30T00:34:14;10.90;99.90
66422;DHT22;53228;51.380;0.098;2024-01-30T00:36:42;11.00;99.90
66422;DHT22;53228;51.380;0.098;2024-01-30T00:39:10;11.10;99.90
66422;DHT22;53228;51.380;0.098;2024-01-30T00:41:37;11.00;99.90
66422;DHT22;53228;51.380;0.098;2024-01-30T00:44:05;11.00;99.90
66422;DHT22;53228;51.380;0.098;2024-01-30T00:46:33;11.00;99.90
66422;DHT22;53228;51.380;0.098;2024-01-30T00:49:00;11.00;99.90
66422;DHT22;53228;51.380;0.098;2024-01-30T00:51:28;11.00;99.90
66422;DHT22;53228;51.380;0.098;2024-01-30T00:53:57;11.00;99.90
66422;DHT22;53228;51.380;0.098;2024-01-30T00:56:25;11.00;99.90
66422;DHT22;53228;51.380;0.098;2024-01-30T00:58:52;11.00;99.90
66422;DHT22;53228;51.380;0.098;2024-01-30T01:01:20;10.90;99.90
66422;DHT22;53228;51.380;0.098;2024-01-30T01:03:48;11.00;99.90
66422;DHT22;53228;51.380;0.098;2024-01-30T01:06:16;11.00;99.90
66422;DHT22;53228;51.380;0.098;2024-01-30T01:08:44;10.70;99.90
66422;DHT22;53228;51.380;0.098;2024-01-30T01:11:11;10.30;99.90
66422;DHT22;53228;51.380;0.098;2024-01-30T01:13:39;10.00;99.90
66422;DHT22;53228;51.380;0.098;2024-01-30T01:16:07;9.70;99.90
66422;DHT22;53228;51.380;0.098;2024-01-30T01:18:35;9.30;99.90
66422;DHT22;53228;51.380;0.098;2024-01-30T01:21:03;9.00;99.90
66422;DHT22;53228;51.380;0.098;2024-01-30T01:23:30;8.80;99.90
66422;DHT22;53228;51.380;0.098;2024-01-30T01:25:58;8.60;99.90
66422;DHT22;53228;51.380;0.098;2024-01-30T01:28:28;8.80;99.90
66422;DHT22;53228;51.380;0.098;2024-01-30T01:30:55;8.30;99.90
66422;DHT22;53228;51.380;0.098;2024-01-30T01:33:26;8.20;99.90
66422;DHT22;53228;51.380;0.098;2024-01-30T01:35:54;8.10;99.90
66422;DHT22;53228;51.380;0.098;2024-01-30T01:38:22;7.50;99.90
66422;DHT22;53228;51.380;0.098;2024-01-30T01:40:49;8.00;99.90
66422;DHT22;53228;51.380;0.098;2024-01-30T01:43:18;8.00;99.90
66422;DHT22;53228;51.380;0.098;2024-01-30T01:45:46;7.90;99.90
66422;DHT22;53228;51.380;0.098;2024-01-30T01:48:14;7.90;99.90
66422;DHT22;53228;51.380;0.098;2024-01-30T01:50:42;7.80;99.90
66422;DHT22;53228;51.380;0.098;2024-01-30T01:53:12;7.80;99.90
66422;DHT22;53228;51.380;0.098;2024-01-30T01:55:39;7.80;99.90
66422;DHT22;53228;51.380;0.098;2024-01-30T01:58:09;7.70;99.90
66422;DHT22;53228;51.380;0.098;2024-01-30T02:00:37;7.70;99.90
66422;DHT22;53228;51.380;0.098;2024-01-30T02:03:10;7.70;99.90
66422;DHT22;53228;51.380;0.098;2024-01-30T02:05:41;7.70;99.90
66422;DHT22;53228;51.380;0.098;2024-01-30T02:08:09;7.70;99.90
66422;DHT22;53228;51.380;0.098;2024-01-30T02:10:37;7.70;99.90
66422;DHT22;53228;51.380;0.098;2024-01-30T02:13:05;7.70;99.90
66422;DHT22;53228;51.380;0.098;2024-01-30T02:15:33;7.90;99.90
66422;DHT22;53228;51.380;0.098;2024-01-30T02:18:00;7.60;99.90
66422;DHT22;53228;51.380;0.098;2024-01-30T02:20:30;7.60;99.90
66422;DHT22;53228;51.380;0.098;2024-01-30T02:22:59;7.60;99.90
66422;DHT22;53228;51.380;0.098;2024-01-30T02:25:38;7.60;99.90
66422;DHT22;53228;51.380;0.098;2024-01-30T02:28:06;7.60;99.90
66422;DHT22;53228;51.380;0.098;2024-01-30T02:30:33;7.60;99.90
66422;DHT22;53228;51.380;0.098;2024-01-30T02:33:01;7.60;99.90
66422;DHT22;53228;51.380;0.098;2024-01-30T02:35:29;8.20;99.90
66422;DHT22;53228;51.380;0.098;2024-01-30T02:37:57;7.40;99.90
66422;DHT22;53228;51.380;0.098;2024-01-30T02:40:25;7.50;99.90
66422;DHT22;53228;51.380;0.098;2024-01-30T02:42:52;7.50;99.90
66422;DHT22;53228;51.380;0.098;2024-01-30T02:45:20;7.40;99.90
66422;DHT22;53228;51.380;0.098;2024-01-30T02:47:48;7.40;99.90
66422;DHT22;53228;51.380;0.098;2024-01-30T02:50:15;7.20;99.90
66422;DHT22;53228;51.380;0.098;2024-01-30T02:52:44;7.30;99.90
66422;DHT22;53228;51.380;0.098;2024-01-30T02:55:12;7.30;99.90
66422;DHT22;53228;51.380;0.098;2024-01-30T02:57:40;7.30;99.90
66422;DHT22;53228;51.380;0.098;2024-01-30T03:00:08;7.40;99.90
66422;DHT22;53228;51.380;0.098;2024-01-30T03:02:37;7.20;99.90
66422;DHT22;53228;51.380;0.098;2024-01-30T03:05:06;7.20;99.90
66422;DHT22;53228;51.380;0.098;2024-01-30T03:07:34;7.10;99.90
66422;DHT22;53228;51.380;0.098;2024-01-30T03:10:02;7.10;99.90
66422;DHT22;53228;51.380;0.098;2024-01-30T03:12:29;7.10;99.90
66422;DHT22;53228;51.380;0.098;2024-01-30T03:14:57;7.10;99.90
66422;DHT22;53228;51.380;0.098;2024-01-30T03:17:25;6.90;99.90
66422;DHT22;53228;51.380;0.098;2024-01-30T03:19:52;7.00;99.90
66422;DHT22;53228;51.380;0.098;2024-01-30T03:22:20;6.90;99.90
66422;DHT22;53228;51.380;0.098;2024-01-30T03:24:48;6.90;99.90
66422;DHT22;53228;51.380;0.098;2024-01-30T03:27:16;6.90;99.90
66422;DHT22;53228;51.380;0.098;2024-01-30T03:29:43;6.80;99.90
66422;DHT22;53228;51.380;0.098;2024-01-30T03:32:11;6.80;99.90
66422;DHT22;53228;51.380;0.098;2024-01-30T03:34:39;6.80;99.90
66422;DHT22;53228;51.380;0.098;2024-01-30T03:37:07;6.80;99.90
66422;DHT22;53228;51.380;0.098;2024-01-30T03:39:35;6.70;99.90
66422;DHT22;53228;51.380;0.098;2024-01-30T03:42:04;6.70;99.90
66422;DHT22;53228;51.380;0.098;2024-01-30T03:44:31;6.70;99.90
66422;DHT22;53228;51.380;0.098;2024-01-30T03:46:59;6.70;99.90
66422;DHT22;53228;51.380;0.098;2024-01-30T03:49:27;6.60;99.90
66422;DHT22;53228;51.380;0.098;2024-01-30T03:51:54;6.60;99.90
66422;DHT22;53228;51.380;0.098;2024-01-30T03:54:22;6.60;99.90
66422;DHT22;53228;51.380;0.098;2024-01-30T03:56:50;6.50;99.90
66422;DHT22;53228;51.380;0.098;2024-01-30T03:59:17;6.50;99.90
66422;DHT22;53228;51.380;0.098;2024-01-30T04:01:52;6.40;99.90
66422;DHT22;53228;51.380;0.098;2024-01-30T04:04:20;6.40;99.90
66422;DHT22;53228;51.380;0.098;2024-01-30T04:06:48;6.40;99.90
66422;DHT22;53228;51.380;0.098;2024-01-30T04:09:15;6.30;99.90
66422;DHT22;53228;51.380;0.098;2024-01-30T04:11:43;6.30;99.90
66422;DHT22;53228;51.380;0.098;2024-01-30T04:14:11;6.30;99.90
66422;DHT22;53228;51.380;0.098;2024-01-30T04:16:38;6.20;99.90
66422;DHT22;53228;51.380;0.098;2024-01-30T04:19:06;6.30;99.90
66422;DHT22;53228;51.380;0.098;2024-01-30T04:21:34;7.50;99.90
66422;DHT22;53228;51.380;0.098;2024-01-30T04:24:02;5.60;99.90
66422;DHT22;53228;51.380;0.098;2024-01-30T04:26:29;6.20;99.90
66422;DHT22;53228;51.380;0.098;2024-01-30T04:28:57;6.20;99.90
66422;DHT22;53228;51.380;0.098;2024-01-30T04:31:24;6.20;99.90
66422;DHT22;53228;51.380;0.098;2024-01-30T04:33:52;6.30;99.90
66422;DHT22;53228;51.380;0.098;2024-01-30T04:36:20;5.40;99.90
66422;DHT22;53228;51.380;0.098;2024-01-30T04:38:48;6.20;99.90
66422;DHT22;53228;51.380;0.098;2024-01-30T04:41:15;5.50;99.90
66422;DHT22;53228;51.380;0.098;2024-01-30T04:43:43;6.20;99.90
66422;DHT22;53228;51.380;0.098;2024-01-30T04:46:10;6.10;99.90
66422;DHT22;53228;51.380;0.098;2024-01-30T04:48:38;6.20;99.90
66422;DHT22;53228;51.380;0.098;2024-01-30T04:51:06;6.10;99.90
66422;DHT22;53228;51.380;0.098;2024-01-30T04:53:34;6.10;99.90
66422;DHT22;53228;51.380;0.098;2024-01-30T04:56:01;6.10;99.90
66422;DHT22;53228;51.380;0.098;2024-01-30T04:58:29;6.10;99.90
66422;DHT22;53228;51.380;0.098;2024-01-30T05:00:57;6.10;99.90
66422;DHT22;53228;51.380;0.098;2024-01-30T05:03:25;6.10;99.90
66422;DHT22;53228;51.380;0.098;2024-01-30T05:05:53;6.10;99.90
66422;DHT22;53228;51.380;0.098;2024-01-30T05:08:21;6.10;99.90
66422;DHT22;53228;51.380;0.098;2024-01-30T05:10:48;6.00;99.90
66422;DHT22;53228;51.380;0.098;2024-01-30T05:13:16;6.00;99.90
66422;DHT22;53228;51.380;0.098;2024-01-30T05:15:44;6.00;99.90
66422;DHT22;53228;51.380;0.098;2024-01-30T05:18:11;6.00;99.90
66422;DHT22;53228;51.380;0.098;2024-01-30T05:20:39;5.90;99.90
66422;DHT22;53228;51.380;0.098;2024-01-30T05:23:06;5.90;99.90
66422;DHT22;53228;51.380;0.098;2024-01-30T05:25:34;5.90;99.90
66422;DHT22;53228;51.380;0.098;2024-01-30T05:28:02;5.90;99.90
66422;DHT22;53228;51.380;0.098;2024-01-30T05:30:30;5.80;99.90
66422;DHT22;53228;51.380;0.098;2024-01-30T05:32:58;5.80;99.90
66422;DHT22;53228;51.380;0.098;2024-01-30T05:35:25;5.80;99.90
66422;DHT22;53228;51.380;0.098;2024-01-30T05:37:53;5.70;99.90
66422;DHT22;53228;51.380;0.098;2024-01-30T05:40:21;5.10;99.90
66422;DHT22;53228;51.380;0.098;2024-01-30T05:42:48;5.70;99.90
66422;DHT22;53228;51.380;0.098;2024-01-30T05:45:16;5.70;99.90
66422;DHT22;53228;51.380;0.098;2024-01-30T05:47:44;5.70;99.90
66422;DHT22;53228;51.380;0.098;2024-01-30T05:50:11;3.70;99.90
66422;DHT22;53228;51.380;0.098;2024-01-30T05:52:39;5.60;99.90
66422;DHT22;53228;51.380;0.098;2024-01-30T05:55:07;5.60;99.90
66422;DHT22;53228;51.380;0.098;2024-01-30T05:57:35;5.60;99.90
66422;DHT22;53228;51.380;0.098;2024-01-30T06:00:06;5.50;99.90
66422;DHT22;53228;51.380;0.098;2024-01-30T06:02:35;5.50;99.90
66422;DHT22;53228;51.380;0.098;2024-01-30T06:05:03;5.50;99.90
66422;DHT22;53228;51.380;0.098;2024-01-30T06:07:31;5.50;99.90
66422;DHT22;53228;51.380;0.098;2024-01-30T06:10:03;5.50;99.90
66422;DHT22;53228;51.380;0.098;2024-01-30T06:12:31;5.40;99.90
66422;DHT22;53228;51.380;0.098;2024-01-30T06:14:59;5.40;99.90
66422;DHT22;53228;51.380;0.098;2024-01-30T06:17:27;6.10;99.90
66422;DHT22;53228;51.380;0.098;2024-01-30T06:19:55;5.40;99.90
66422;DHT22;53228;51.380;0.098;2024-01-30T06:22:22;5.40;99.90
66422;DHT22;53228;51.380;0.098;2024-01-30T06:24:50;5.40;99.90
66422;DHT22;53228;51.380;0.098;2024-01-30T06:27:18;5.40;99.90
66422;DHT22;53228;51.380;0.098;2024-01-30T06:29:46;5.40;99.90
66422;DHT22;53228;51.380;0.098;2024-01-30T06:32:13;5.30;99.90
66422;DHT22;53228;51.380;0.098;2024-01-30T06:34:41;5.30;99.90
66422;DHT22;53228;51.380;0.098;2024-01-30T06:37:11;5.30;99.90
66422;DHT22;53228;51.380;0.098;2024-01-30T06:39:39;5.40;99.90
66422;DHT22;53228;51.380;0.098;2024-01-30T06:42:07;5.30;99.90
66422;DHT22;53228;51.380;0.098;2024-01-30T06:44:34;5.40;99.90
66422;DHT22;53228;51.380;0.098;2024-01-30T06:47:02;5.40;99.90
66422;DHT22;53228;51.380;0.098;2024-01-30T06:49:30;5.40;99.90
66422;DHT22;53228;51.380;0.098;2024-01-30T06:51:59;5.30;99.90
66422;DHT22;53228;51.380;0.098;2024-01-30T06:54:26;5.30;99.90
66422;DHT22;53228;51.380;0.098;2024-01-30T06:56:54;5.30;99.90
66422;DHT22;53228;51.380;0.098;2024-01-30T06:59:22;5.30;99.90
66422;DHT22;53228;51.380;0.098;2024-01-30T07:01:50;5.30;99.90
66422;DHT22;53228;51.380;0.098;2024-01-30T07:04:18;5.50;99.90
66422;DHT22;53228;51.380;0.098;2024-01-30T07:06:46;5.30;99.90
66422;DHT22;53228;51.380;0.098;2024-01-30T07:09:14;5.30;99.90
66422;DHT22;53228;51.380;0.098;2024-01-30T07:11:42;5.30;99.90
66422;DHT22;53228;51.380;0.098;2024-01-30T07:14:09;6.20;99.90
66422;DHT22;53228;51.380;0.098;2024-01-30T07:16:37;5.30;99.90
66422;DHT22;53228;51.380;0.098;2024-01-30T07:19:05;5.30;99.90
66422;DHT22;53228;51.380;0.098;2024-01-30T07:21:32;5.30;99.90
66422;DHT22;53228;51.380;0.098;2024-01-30T07:24:00;5.20;99.90
66422;DHT22;53228;51.380;0.098;2024-01-30T07:26:28;5.30;99.90
66422;DHT22;53228;51.380;0.098;2024-01-30T07:28:58;5.30;99.90
66422;DHT22;53228;51.380;0.098;2024-01-30T07:31:26;5.30;99.90
66422;DHT22;53228;51.380;0.098;2024-01-30T07:33:56;5.20;99.90
66422;DHT22;53228;51.380;0.098;2024-01-30T07:36:24;5.30;99.90
66422;DHT22;53228;51.380;0.098;2024-01-30T07:38:52;5.30;99.90
66422;DHT22;53228;51.380;0.098;2024-01-30T07:41:21;5.30;99.90
66422;DHT22;53228;51.380;0.098;2024-01-30T07:43:50;5.80;99.90
66422;DHT22;53228;51.380;0.098;2024-01-30T07:46:18;5.30;99.90
66422;DHT22;53228;51.380;0.098;2024-01-30T07:48:52;6.10;99.90
66422;DHT22;53228;51.380;0.098;2024-01-30T07:51:22;5.30;99.90
66422;DHT22;53228;51.380;0.098;2024-01-30T07:53:49;5.30;99.90
66422;DHT22;53228;51.380;0.098;2024-01-30T07:56:18;5.40;99.90
66422;DHT22;53228;51.380;0.098;2024-01-30T07:58:46;5.40;99.90
66422;DHT22;53228;51.380;0.098;2024-01-30T08:01:16;5.40;99.90
66422;DHT22;53228;51.380;0.098;2024-01-30T08:03:44;5.40;99.90
66422;DHT22;53228;51.380;0.098;2024-01-30T08:06:12;5.40;99.90
66422;DHT22;53228;51.380;0.098;2024-01-30T08:08:40;4.80;99.90
66422;DHT22;53228;51.380;0.098;2024-01-30T08:11:07;5.40;99.90
66422;DHT22;53228;51.380;0.098;2024-01-30T08:13:36;5.40;99.90
66422;DHT22;53228;51.380;0.098;2024-01-30T08:16:04;5.50;99.90
66422;DHT22;53228;51.380;0.098;2024-01-30T08:18:32;4.10;99.90
66422;DHT22;53228;51.380;0.098;2024-01-30T08:21:00;5.50;99.90
66422;DHT22;53228;51.380;0.098;2024-01-30T08:23:28;5.50;99.90
66422;DHT22;53228;51.380;0.098;2024-01-30T08:25:55;5.50;99.90
66422;DHT22;53228;51.380;0.098;2024-01-30T08:28:23;5.50;99.90
66422;DHT22;53228;51.380;0.098;2024-01-30T08:30:51;5.50;99.90
66422;DHT22;53228;51.380;0.098;2024-01-30T08:33:19;5.50;99.90
66422;DHT22;53228;51.380;0.098;2024-01-30T08:35:46;5.50;99.90
66422;DHT22;53228;51.380;0.098;2024-01-30T08:38:14;5.50;99.90
66422;DHT22;53228;51.380;0.098;2024-01-30T08:40:41;5.50;99.90
66422;DHT22;53228;51.380;0.098;2024-01-30T08:43:09;5.50;99.90
66422;DHT22;53228;51.380;0.098;2024-01-30T08:45:37;5.50;99.90
66422;DHT22;53228;51.380;0.098;2024-01-30T08:48:05;5.50;99.90
66422;DHT22;53228;51.380;0.098;2024-01-30T08:50:33;5.50;99.90
66422;DHT22;53228;51.380;0.098;2024-01-30T08:53:01;5.50;99.90
66422;DHT22;53228;51.380;0.098;2024-01-30T08:55:30;5.50;99.90
66422;DHT22;53228;51.380;0.098;2024-01-30T08:57:58;5.50;99.90
66422;DHT22;53228;51.380;0.098;2024-01-30T09:00:26;5.50;99.90
66422;DHT22;53228;51.380;0.098;2024-01-30T09:02:53;5.00;99.90
66422;DHT22;53228;51.380;0.098;2024-01-30T09:05:21;5.50;99.90
66422;DHT22;53228;51.380;0.098;2024-01-30T09:07:49;5.50;99.90
66422;DHT22;53228;51.380;0.098;2024-01-30T09:10:17;5.60;99.90
66422;DHT22;53228;51.380;0.098;2024-01-30T09:12:48;5.60;99.90
66422;DHT22;53228;51.380;0.098;2024-01-30T09:15:18;3.90;99.90
66422;DHT22;53228;51.380;0.098;2024-01-30T09:17:46;5.60;99.90
66422;DHT22;53228;51.380;0.098;2024-01-30T09:20:14;5.60;99.90
66422;DHT22;53228;51.380;0.098;2024-01-30T09:22:42;6.10;99.90
66422;DHT22;53228;51.380;0.098;2024-01-30T09:25:09;5.60;99.90
66422;DHT22;53228;51.380;0.098;2024-01-30T09:27:37;5.60;99.90
66422;DHT22;53228;51.380;0.098;2024-01-30T09:30:06;5.60;99.90
66422;DHT22;53228;51.380;0.098;2024-01-30T09:32:34;6.20;99.90
66422;DHT22;53228;51.380;0.098;2024-01-30T09:35:01;5.60;99.90
66422;DHT22;53228;51.380;0.098;2024-01-30T09:37:29;5.60;99.90
66422;DHT22;53228;51.380;0.098;2024-01-30T09:39:57;5.60;99.90
66422;DHT22;53228;51.380;0.098;2024-01-30T09:42:35;5.70;99.90
66422;DHT22;53228;51.380;0.098;2024-01-30T09:45:06;5.70;99.90
66422;DHT22;53228;51.380;0.098;2024-01-30T09:47:44;5.70;99.90
66422;DHT22;53228;51.380;0.098;2024-01-30T09:50:13;5.80;99.90
66422;DHT22;53228;51.380;0.098;2024-01-30T09:52:43;5.70;99.90
66422;DHT22;53228;51.380;0.098;2024-01-30T09:55:10;5.80;99.90
66422;DHT22;53228;51.380;0.098;2024-01-30T09:57:38;5.80;99.90
66422;DHT22;53228;51.380;0.098;2024-01-30T10:00:07;5.80;99.90
66422;DHT22;53228;51.380;0.098;2024-01-30T10:02:39;5.90;99.90
66422;DHT22;53228;51.380;0.098;2024-01-30T10:05:08;5.90;99.90
66422;DHT22;53228;51.380;0.098;2024-01-30T10:07:36;5.90;99.90
66422;DHT22;53228;51.380;0.098;2024-01-30T10:10:05;5.90;99.90
66422;DHT22;53228;51.380;0.098;2024-01-30T10:12:34;5.90;99.90
66422;DHT22;53228;51.380;0.098;2024-01-30T10:15:02;5.90;99.90
66422;DHT22;53228;51.380;0.098;2024-01-30T10:17:30;5.90;99.90
66422;DHT22;53228;51.380;0.098;2024-01-30T10:20:04;6.00;99.90
66422;DHT22;53228;51.380;0.098;2024-01-30T10:22:33;6.00;99.90
66422;DHT22;53228;51.380;0.098;2024-01-30T10:25:01;4.10;99.90
66422;DHT22;53228;51.380;0.098;2024-01-30T10:27:33;6.10;99.90
66422;DHT22;53228;51.380;0.098;2024-01-30T10:30:00;6.10;99.90
66422;DHT22;53228;51.380;0.098;2024-01-30T10:32:30;6.20;99.90
66422;DHT22;53228;51.380;0.098;2024-01-30T10:34:57;6.20;99.90
66422;DHT22;53228;51.380;0.098;2024-01-30T10:37:26;6.20;99.90
66422;DHT22;53228;51.380;0.098;2024-01-30T10:39:56;6.20;99.90
66422;DHT22;53228;51.380;0.098;2024-01-30T10:42:31;5.80;99.90
66422;DHT22;53228;51.380;0.098;2024-01-30T10:45:11;6.20;99.90
66422;DHT22;53228;51.380;0.098;2024-01-30T10:47:49;6.20;99.90
66422;DHT22;53228;51.380;0.098;2024-01-30T10:50:17;6.20;99.90
66422;DHT22;53228;51.380;0.098;2024-01-30T10:52:46;6.10;99.90
66422;DHT22;53228;51.380;0.098;2024-01-30T10:55:16;6.20;99.90
66422;DHT22;53228;51.380;0.098;2024-01-30T10:57:44;4.80;99.90
66422;DHT22;53228;51.380;0.098;2024-01-30T11:00:13;6.30;99.90
66422;DHT22;53228;51.380;0.098;2024-01-30T11:02:45;6.30;99.90
66422;DHT22;53228;51.380;0.098;2024-01-30T11:05:13;6.40;99.90
66422;DHT22;53228;51.380;0.098;2024-01-30T11:07:43;6.50;99.90
66422;DHT22;53228;51.380;0.098;2024-01-30T11:10:12;6.70;99.90
66422;DHT22;53228;51.380;0.098;2024-01-30T11:12:43;6.70;99.90
66422;DHT22;53228;51.380;0.098;2024-01-30T11:15:15;6.70;99.90
66422;DHT22;53228;51.380;0.098;2024-01-30T11:20:29;6.80;99.90
66422;DHT22;53228;51.380;0.098;2024-01-30T11:23:01;6.90;99.90
66422;DHT22;53228;51.380;0.098;2024-01-30T11:25:34;7.00;99.90
66422;DHT22;53228;51.380;0.098;2024-01-30T11:28:03;7.00;99.90
66422;DHT22;53228;51.380;0.098;2024-01-30T11:30:32;7.00;99.90
66422;DHT22;53228;51.380;0.098;2024-01-30T11:33:08;7.00;99.90
66422;DHT22;53228;51.380;0.098;2024-01-30T11:35:38;7.00;99.90
66422;DHT22;53228;51.380;0.098;2024-01-30T11:38:11;8.00;99.90
66422;DHT22;53228;51.380;0.098;2024-01-30T11:40:39;6.90;99.90
66422;DHT22;53228;51.380;0.098;2024-01-30T11:43:08;6.90;99.90
66422;DHT22;53228;51.380;0.098;2024-01-30T11:45:37;6.90;99.90
66422;DHT22;53228;51.380;0.098;2024-01-30T11:48:05;6.90;99.90
66422;DHT22;53228;51.380;0.098;2024-01-30T11:50:34;6.90;99.90
66422;DHT22;53228;51.380;0.098;2024-01-30T11:53:03;6.90;99.90
66422;DHT22;53228;51.380;0.098;2024-01-30T11:55:32;6.80;99.90
66422;DHT22;53228;51.380;0.098;2024-01-30T11:58:02;6.90;99.90
66422;DHT22;53228;51.380;0.098;2024-01-30T12:00:30;6.80;99.90
66422;DHT22;53228;51.380;0.098;2024-01-30T12:02:59;6.80;99.90
66422;DHT22;53228;51.380;0.098;2024-01-30T12:05:28;6.80;99.90
66422;DHT22;53228;51.380;0.098;2024-01-30T12:07:57;6.70;99.90
66422;DHT22;53228;51.380;0.098;2024-01-30T12:10:27;6.80;99.90
66422;DHT22;53228;51.380;0.098;2024-01-30T12:12:56;6.80;99.90
66422;DHT22;53228;51.380;0.098;2024-01-30T12:15:25;6.80;99.90
66422;DHT22;53228;51.380;0.098;2024-01-30T12:18:04;6.80;99.90
66422;DHT22;53228;51.380;0.098;2024-01-30T12:20:32;6.90;99.90
66422;DHT22;53228;51.380;0.098;2024-01-30T12:23:00;7.00;99.90
66422;DHT22;53228;51.380;0.098;2024-01-30T12:25:28;7.70;99.90
66422;DHT22;53228;51.380;0.098;2024-01-30T12:27:55;8.60;99.90
66422;DHT22;53228;51.380;0.098;2024-01-30T12:30:23;9.10;99.90
66422;DHT22;53228;51.380;0.098;2024-01-30T12:32:51;9.20;99.90
66422;DHT22;53228;51.380;0.098;2024-01-30T12:35:20;9.10;99.90
66422;DHT22;53228;51.380;0.098;2024-01-30T12:37:49;8.90;99.90
66422;DHT22;53228;51.380;0.098;2024-01-30T12:40:18;8.70;99.90
66422;DHT22;53228;51.380;0.098;2024-01-30T12:42:47;8.50;99.90
66422;DHT22;53228;51.380;0.098;2024-01-30T12:45:18;9.00;99.90
66422;DHT22;53228;51.380;0.098;2024-01-30T12:47:50;8.10;99.90
66422;DHT22;53228;51.380;0.098;2024-01-30T12:50:19;7.90;99.90
66422;DHT22;53228;51.380;0.098;2024-01-30T12:52:46;7.80;99.90
66422;DHT22;53228;51.380;0.098;2024-01-30T12:55:17;7.80;99.90
66422;DHT22;53228;51.380;0.098;2024-01-30T12:57:45;7.70;99.90
66422;DHT22;53228;51.380;0.098;2024-01-30T13:00:14;7.70;99.90
66422;DHT22;53228;51.380;0.098;2024-01-30T13:02:44;7.70;99.90
66422;DHT22;53228;51.380;0.098;2024-01-30T13:05:12;9.50;99.90
66422;DHT22;53228;51.380;0.098;2024-01-30T13:07:40;7.70;99.90
66422;DHT22;53228;51.380;0.098;2024-01-30T13:10:08;7.80;99.90
66422;DHT22;53228;51.380;0.098;2024-01-30T13:12:36;7.90;99.90
66422;DHT22;53228;51.380;0.098;2024-01-30T13:15:05;7.30;99.90
66422;DHT22;53228;51.380;0.098;2024-01-30T13:17:33;8.10;99.90
66422;DHT22;53228;51.380;0.098;2024-01-30T13:20:01;8.20;99.90
66422;DHT22;53228;51.380;0.098;2024-01-30T13:22:37;8.10;99.90
66422;DHT22;53228;51.380;0.098;2024-01-30T13:25:07;8.20;99.90
66422;DHT22;53228;51.380;0.098;2024-01-30T13:27:37;8.30;99.90
66422;DHT22;53228;51.380;0.098;2024-01-30T13:30:07;8.40;99.90
66422;DHT22;53228;51.380;0.098;2024-01-30T13:32:36;8.50;99.90
66422;DHT22;53228;51.380;0.098;2024-01-30T13:35:04;8.60;99.90
66422;DHT22;53228;51.380;0.098;2024-01-30T13:37:32;8.70;99.90
66422;DHT22;53228;51.380;0.098;2024-01-30T13:39:59;8.80;99.90
66422;DHT22;53228;51.380;0.098;2024-01-30T13:42:31;8.50;99.90
66422;DHT22;53228;51.380;0.098;2024-01-30T13:44:59;8.00;99.90
66422;DHT22;53228;51.380;0.098;2024-01-30T13:47:26;8.60;99.90
66422;DHT22;53228;51.380;0.098;2024-01-30T13:49:54;8.50;99.90
66422;DHT22;53228;51.380;0.098;2024-01-30T13:52:22;9.00;99.90
66422;DHT22;53228;51.380;0.098;2024-01-30T13:54:58;8.40;99.90
66422;DHT22;53228;51.380;0.098;2024-01-30T13:57:26;8.20;99.90
66422;DHT22;53228;51.380;0.098;2024-01-30T13:59:53;7.20;99.90
66422;DHT22;53228;51.380;0.098;2024-01-30T14:02:21;8.00;99.90
66422;DHT22;53228;51.380;0.098;2024-01-30T14:04:48;8.00;99.90
66422;DHT22;53228;51.380;0.098;2024-01-30T14:07:16;7.90;99.90
66422;DHT22;53228;51.380;0.098;2024-01-30T14:09:47;7.90;99.90
66422;DHT22;53228;51.380;0.098;2024-01-30T14:12:15;7.80;99.90
66422;DHT22;53228;51.380;0.098;2024-01-30T14:14:42;7.70;99.90
66422;DHT22;53228;51.380;0.098;2024-01-30T14:17:10;7.70;99.90
66422;DHT22;53228;51.380;0.098;2024-01-30T14:19:38;7.60;99.90
66422;DHT22;53228;51.380;0.098;2024-01-30T14:22:07;7.50;99.90
66422;DHT22;53228;51.380;0.098;2024-01-30T14:24:35;7.60;99.90
66422;DHT22;53228;51.380;0.098;2024-01-30T14:27:04;7.30;99.90
66422;DHT22;53228;51.380;0.098;2024-01-30T14:29:32;7.20;99.90
66422;DHT22;53228;51.380;0.098;2024-01-30T14:32:00;7.20;99.90
66422;DHT22;53228;51.380;0.098;2024-01-30T14:34:27;7.10;99.90
66422;DHT22;53228;51.380;0.098;2024-01-30T14:36:55;7.10;99.90
66422;DHT22;53228;51.380;0.098;2024-01-30T14:39:24;7.00;99.90
66422;DHT22;53228;51.380;0.098;2024-01-30T14:41:51;6.90;99.90
66422;DHT22;53228;51.380;0.098;2024-01-30T14:44:19;6.90;99.90
66422;DHT22;53228;51.380;0.098;2024-01-30T14:46:47;6.80;99.90
66422;DHT22;53228;51.380;0.098;2024-01-30T14:49:15;6.80;99.90
66422;DHT22;53228;51.380;0.098;2024-01-30T14:51:43;6.70;99.90
66422;DHT22;53228;51.380;0.098;2024-01-30T14:54:11;6.00;99.90
66422;DHT22;53228;51.380;0.098;2024-01-30T14:56:38;6.60;99.90
66422;DHT22;53228;51.380;0.098;2024-01-30T14:59:06;6.70;99.90
66422;DHT22;53228;51.380;0.098;2024-01-30T15:01:34;6.70;99.90
66422;DHT22;53228;51.380;0.098;2024-01-30T15:04:02;6.70;99.90
66422;DHT22;53228;51.380;0.098;2024-01-30T15:06:30;6.70;99.90
66422;DHT22;53228;51.380;0.098;2024-01-30T15:08:57;6.70;99.90
66422;DHT22;53228;51.380;0.098;2024-01-30T15:11:25;6.70;99.90
66422;DHT22;53228;51.380;0.098;2024-01-30T15:13:53;6.70;99.90
66422;DHT22;53228;51.380;0.098;2024-01-30T15:16:20;6.70;99.90
66422;DHT22;53228;51.380;0.098;2024-01-30T15:18:48;6.70;99.90
66422;DHT22;53228;51.380;0.098;2024-01-30T15:21:16;6.70;99.90
66422;DHT22;53228;51.380;0.098;2024-01-30T15:23:48;6.70;99.90
66422;DHT22;53228;51.380;0.098;2024-01-30T15:26:16;6.70;99.90
66422;DHT22;53228;51.380;0.098;2024-01-30T15:28:44;6.70;99.90
66422;DHT22;53228;51.380;0.098;2024-01-30T15:31:11;6.70;99.90
66422;DHT22;53228;51.380;0.098;2024-01-30T15:33:40;6.70;99.90
66422;DHT22;53228;51.380;0.098;2024-01-30T15:36:10;6.60;99.90
66422;DHT22;53228;51.380;0.098;2024-01-30T15:38:41;6.60;99.90
66422;DHT22;53228;51.380;0.098;2024-01-30T15:41:09;6.60;99.90
66422;DHT22;53228;51.380;0.098;2024-01-30T15:43:36;6.60;99.90
66422;DHT22;53228;51.380;0.098;2024-01-30T15:46:06;6.50;99.90
66422;DHT22;53228;51.380;0.098;2024-01-30T15:48:33;6.50;99.90
66422;DHT22;53228;51.380;0.098;2024-01-30T15:51:01;5.70;99.90
66422;DHT22;53228;51.380;0.098;2024-01-30T15:53:29;6.40;99.90
66422;DHT22;53228;51.380;0.098;2024-01-30T15:55:57;6.40;99.90